Time;durP1;ratioP1;P1;durP2;ratioP2;P2;SDS_P1;SDS_P2;PMS_P1;PMS_P2;Temp;Humidity;BMP_temperature;BMP_pressure;BME280_temperature;BME280_humidity;BME280_pressure;Samples;Min_cycle;Max_cycle;Signal;HPM_P1;HPM_P2
2022/05/06 00:01:36;;;;;;;5.72;3.00;;;384.40;2329.60;;;;;;5030525;28;20109;-55
2022/05/06 00:04:03;;;;;;;4.95;3.53;;;384.60;2329.60;;;;;;5030872;28;20090;-57
2022/05/06 00:06:29;;;;;;;4.70;3.17;;;384.60;2329.60;;;;;;5030416;28;20125;-56
2022/05/06 00:08:56;;;;;;;4.90;2.85;;;384.50;2329.60;;;;;;5030282;28;20026;-56
2022/05/06 00:11:22;;;;;;;5.50;3.42;;;384.60;2329.60;;;;;;5030400;28;20036;-56
2022/05/06 00:13:48;;;;;;;6.22;2.75;;;384.40;2329.60;;;;;;5030802;28;20025;-56
2022/05/06 00:16:15;;;;;;;5.30;2.83;;;384.40;2329.60;;;;;;5030336;28;20021;-55
2022/05/06 00:18:41;;;;;;;6.40;2.80;;;384.30;2329.60;;;;;;5030578;28;20120;-57
2022/05/06 00:21:06;;;;;;;5.45;2.83;;;384.20;2329.60;;;;;;5030190;28;20528;-55
2022/05/06 00:23:32;;;;;;;5.47;3.22;;;384.20;2329.60;;;;;;5030280;28;20041;-54
2022/05/06 00:25:58;;;;;;;5.43;3.20;;;384.20;2329.60;;;;;;5030193;28;20026;-56
2022/05/06 00:28:23;;;;;;;4.72;2.78;;;384.10;2329.60;;;;;;5030135;28;20041;-56
2022/05/06 00:30:49;;;;;;;3.92;2.60;;;384.10;2329.60;;;;;;5030251;28;20106;-53
2022/05/06 00:33:15;;;;;;;5.30;2.83;;;384.20;2329.60;;;;;;5030227;28;20025;-53
2022/05/06 00:35:41;;;;;;;4.88;2.90;;;384.30;2329.60;;;;;;5030144;28;20048;-54
2022/05/06 00:38:08;;;;;;;5.00;2.95;;;384.30;2329.60;;;;;;5029730;28;20064;-55
2022/05/06 00:40:34;;;;;;;4.32;2.80;;;384.40;2329.60;;;;;;5029851;28;20021;-54
2022/05/06 00:42:59;;;;;;;5.97;2.83;;;384.40;2329.60;;;;;;5030107;28;20021;-54
2022/05/06 00:45:36;;;;;;;3.50;1.98;;;384.30;2329.60;;;;;;5029927;28;20032;-55
2022/05/06 00:48:02;;;;;;;4.90;3.60;;;384.10;2329.60;;;;;;5030157;28;20033;-54
2022/05/06 00:50:28;;;;;;;4.18;2.70;;;359.30;2329.60;;;;;;5029711;28;20024;-55
2022/05/06 00:52:54;;;;;;;4.93;3.15;;;359.30;2329.60;;;;;;5029771;28;20053;-57
2022/05/06 00:55:21;;;;;;;4.53;2.97;;;359.30;2329.60;;;;;;5029980;28;20557;-55
2022/05/06 00:57:47;;;;;;;5.05;2.92;;;359.30;2329.60;;;;;;5029701;28;20026;-57
2022/05/06 01:00:19;;;;;;;3.38;2.17;;;359.20;2329.60;;;;;;5029834;28;20029;-54
2022/05/06 01:02:46;;;;;;;3.23;2.13;;;384.10;2329.60;;;;;;5029770;28;20033;-55
2022/05/06 01:05:13;;;;;;;5.13;2.90;;;359.30;2329.60;;;;;;5029942;28;20071;-56
2022/05/06 01:07:40;;;;;;;5.13;2.97;;;384.10;2329.60;;;;;;5029753;28;20482;-56
2022/05/06 01:10:07;;;;;;;4.70;3.17;;;384.10;2329.60;;;;;;5029735;28;20442;-56
2022/05/06 01:12:33;;;;;;;4.95;2.78;;;384.10;2329.60;;;;;;5029770;28;20022;-55
2022/05/06 01:14:59;;;;;;;5.47;3.15;;;384.00;2329.60;;;;;;5029824;28;20495;-55
2022/05/06 01:17:25;;;;;;;5.20;3.38;;;384.10;2329.60;;;;;;5029565;28;20044;-54
2022/05/06 01:19:51;;;;;;;4.53;2.60;;;384.10;2329.60;;;;;;5029866;28;20049;-56
2022/05/06 01:22:20;;;;;;;3.92;2.75;;;384.10;2329.60;;;;;;5029594;28;20018;-54
2022/05/06 01:24:45;;;;;;;5.22;3.00;;;359.30;2329.60;;;;;;5029566;28;20155;-56
2022/05/06 01:27:25;;;;;;;5.43;3.45;;;359.30;2329.60;;;;;;5029688;28;20242;-56
2022/05/06 01:29:52;;;;;;;5.07;3.30;;;359.30;2329.60;;;;;;5029766;28;20101;-56
2022/05/06 01:32:18;;;;;;;4.57;2.80;;;359.20;2329.60;;;;;;5029676;28;20104;-55
2022/05/06 01:34:46;;;;;;;3.90;2.80;;;359.30;2329.60;;;;;;5029395;28;20072;-53
2022/05/06 01:37:16;;;;;;;4.82;2.95;;;359.30;2329.60;;;;;;5029227;28;20049;-54
2022/05/06 01:39:44;;;;;;;6.20;3.22;;;384.00;2329.60;;;;;;5029491;28;20045;-56
2022/05/06 01:42:13;;;;;;;5.53;3.22;;;384.00;2329.60;;;;;;5029642;28;20036;-55
2022/05/06 01:44:43;;;;;;;4.65;3.13;;;384.20;2329.60;;;;;;5029659;28;20026;-56
2022/05/06 01:47:23;;;;;;;5.22;3.20;;;384.20;2329.60;;;;;;5029476;28;20052;-56
2022/05/06 01:49:50;;;;;;;5.13;2.90;;;384.10;2329.60;;;;;;5029458;28;20064;-54
2022/05/06 01:52:17;;;;;;;4.88;3.13;;;384.00;2329.60;;;;;;5029542;28;20061;-56
2022/05/06 01:54:44;;;;;;;5.07;3.10;;;359.30;2329.60;;;;;;5029380;28;20063;-54
2022/05/06 01:57:10;;;;;;;5.60;3.08;;;359.30;2329.60;;;;;;5029148;28;20037;-56
2022/05/06 01:59:35;;;;;;;3.90;2.78;;;384.00;2329.60;;;;;;5029179;28;20031;-55
2022/05/06 02:02:01;;;;;;;4.25;2.95;;;384.10;2329.60;;;;;;5031535;28;20036;-55
2022/05/06 02:07:11;;;;;;;7.15;2.90;;;384.30;2329.60;;;;;;5032795;28;20558;-54
2022/05/06 02:09:37;;;;;;;7.03;3.65;;;384.30;2329.60;;;;;;5032608;28;20037;-57
2022/05/06 02:12:03;;;;;;;4.47;2.85;;;384.30;2329.60;;;;;;5032600;28;20021;-57
2022/05/06 02:14:29;;;;;;;5.88;3.70;;;384.20;2329.60;;;;;;5032643;28;20467;-57
2022/05/06 02:16:55;;;;;;;7.93;4.15;;;384.20;2329.60;;;;;;5032385;28;20029;-55
2022/05/06 02:19:21;;;;;;;5.38;3.28;;;384.10;2329.60;;;;;;5032506;28;20059;-54
2022/05/06 02:21:47;;;;;;;4.45;2.95;;;384.10;2329.60;;;;;;5032460;28;20124;-56
2022/05/06 02:24:12;;;;;;;5.55;3.30;;;384.20;2329.60;;;;;;5032323;28;20071;-56
2022/05/06 02:26:38;;;;;;;6.47;3.53;;;384.20;2329.60;;;;;;5032436;28;20026;-55
2022/05/06 02:29:04;;;;;;;6.32;3.20;;;384.20;2329.60;;;;;;5032193;28;20071;-54
2022/05/06 02:34:18;;;;;;;6.05;3.50;;;384.20;2329.60;;;;;;5032681;28;20028;-55
2022/05/06 02:36:45;;;;;;;6.63;4.57;;;384.30;2329.60;;;;;;5032053;28;20106;-54
2022/05/06 02:39:11;;;;;;;6.63;3.70;;;384.30;2329.60;;;;;;5032207;28;20037;-56
2022/05/06 02:41:36;;;;;;;5.97;4.05;;;384.30;2329.60;;;;;;5031916;28;20018;-55
2022/05/06 02:44:04;;;;;;;4.40;2.75;;;384.30;2329.60;;;;;;5032020;28;20025;-53
2022/05/06 02:46:33;;;;;;;5.75;3.65;;;384.30;2329.60;;;;;;5032390;28;20092;-55
2022/05/06 02:49:00;;;;;;;6.30;3.47;;;384.30;2329.60;;;;;;5032255;28;20076;-54
2022/05/06 02:51:28;;;;;;;3.80;2.83;;;384.40;2329.60;;;;;;5031949;28;20027;-55
2022/05/06 02:53:57;;;;;;;4.95;3.33;;;384.30;2329.60;;;;;;5031716;28;20124;-53
2022/05/06 02:56:26;;;;;;;6.05;3.10;;;384.30;2329.60;;;;;;5031726;28;20539;-54
2022/05/06 02:58:51;;;;;;;5.75;3.35;;;384.20;2329.60;;;;;;5031814;28;20033;-55
2022/05/06 03:01:17;;;;;;;7.10;3.20;;;384.20;2329.60;;;;;;5031730;28;20032;-56
2022/05/06 03:03:43;;;;;;;6.32;2.97;;;384.30;2329.60;;;;;;5031769;28;20040;-55
2022/05/06 03:06:09;;;;;;;5.80;3.10;;;384.20;2329.60;;;;;;5031641;28;20570;-53
2022/05/06 03:08:35;;;;;;;5.13;3.20;;;384.20;2329.60;;;;;;5031517;28;20026;-54
2022/05/06 03:11:02;;;;;;;5.45;3.78;;;384.20;2329.60;;;;;;5031536;28;20031;-56
2022/05/06 03:13:27;;;;;;;5.72;3.58;;;384.20;2329.60;;;;;;5031453;28;20030;-54
2022/05/06 03:15:53;;;;;;;5.82;3.78;;;384.30;2329.60;;;;;;5031344;28;20026;-57
2022/05/06 03:18:19;;;;;;;5.55;3.28;;;384.30;2329.60;;;;;;5031388;28;20064;-56
2022/05/06 03:20:45;;;;;;;4.35;3.13;;;384.30;2329.60;;;;;;5031392;28;20017;-56
2022/05/06 03:23:15;;;;;;;5.78;2.95;;;384.30;2329.60;;;;;;5031528;28;20057;-56
2022/05/06 03:25:41;;;;;;;5.55;3.53;;;384.30;2329.60;;;;;;5031382;28;20101;-56
2022/05/06 03:28:09;;;;;;;5.72;3.33;;;384.30;2329.60;;;;;;5031070;28;20495;-53
2022/05/06 03:30:44;;;;;;;6.10;3.90;;;384.30;2329.60;;;;;;5031343;28;20030;-55
2022/05/06 03:33:12;;;;;;;5.82;3.70;;;384.30;2329.60;;;;;;5031296;28;20032;-56
2022/05/06 03:35:39;;;;;;;13.73;4.68;;;384.10;2329.60;;;;;;5031078;28;20021;-54
2022/05/06 03:38:06;;;;;;;10.43;4.63;;;384.10;2329.60;;;;;;5030941;28;20119;-56
2022/05/06 03:40:32;;;;;;;5.75;4.10;;;384.10;2329.60;;;;;;5031014;28;20100;-53
2022/05/06 03:42:59;;;;;;;7.82;4.80;;;384.10;2329.60;;;;;;5030970;28;20438;-53
2022/05/06 03:45:25;;;;;;;5.30;3.70;;;384.00;2329.60;;;;;;5030677;28;20411;-55
2022/05/06 03:47:52;;;;;;;7.03;4.80;;;384.00;2329.60;;;;;;5030951;28;20361;-54
2022/05/06 03:53:02;;;;;;;4.97;4.03;;;384.10;2329.60;;;;;;5030918;28;20036;-55
2022/05/06 03:55:28;;;;;;;7.13;4.63;;;384.00;2329.60;;;;;;5030827;28;20025;-54
2022/05/06 03:57:54;;;;;;;7.03;4.22;;;384.00;2329.60;;;;;;5030466;28;20069;-55
2022/05/06 04:00:20;;;;;;;6.57;4.25;;;384.00;2329.60;;;;;;5030690;28;20018;-54
2022/05/06 04:02:46;;;;;;;7.32;4.50;;;384.10;2329.60;;;;;;5030528;28;20022;-55
2022/05/06 04:05:12;;;;;;;5.50;4.38;;;384.10;2329.60;;;;;;5030725;28;20034;-53
2022/05/06 04:07:38;;;;;;;6.05;3.92;;;384.20;2329.60;;;;;;5030558;28;20051;-53
2022/05/06 04:10:05;;;;;;;5.20;3.78;;;384.30;2329.60;;;;;;5030428;28;20480;-55
2022/05/06 04:12:31;;;;;;;5.90;4.47;;;384.30;2329.60;;;;;;5030446;28;20190;-55
2022/05/06 04:14:56;;;;;;;7.47;4.35;;;384.30;2329.60;;;;;;5030275;28;20057;-55
2022/05/06 04:17:22;;;;;;;7.00;5.32;;;384.10;2329.60;;;;;;5030316;28;20048;-54
2022/05/06 04:25:19;;;;;;;9.23;5.15;;;384.10;2329.60;;;;;;5030209;28;20036;-56
2022/05/06 04:27:45;;;;;;;9.45;5.28;;;384.30;2329.60;;;;;;5030390;28;20021;-56
2022/05/06 04:30:12;;;;;;;10.13;5.18;;;384.20;2329.60;;;;;;5030554;28;20097;-56
2022/05/06 04:32:38;;;;;;;8.88;4.72;;;384.20;2329.60;;;;;;5030412;28;20029;-55
2022/05/06 04:35:06;;;;;;;8.60;4.82;;;384.30;2329.60;;;;;;5030010;28;20025;-55
2022/05/06 04:37:35;;;;;;;9.82;5.70;;;384.30;2329.60;;;;;;5029829;28;20060;-56
2022/05/06 04:40:01;;;;;;;8.70;6.68;;;384.10;2329.60;;;;;;5030348;28;20033;-55
2022/05/06 04:42:27;;;;;;;10.45;5.82;;;359.30;2329.60;;;;;;5029713;28;20030;-56
2022/05/06 04:44:53;;;;;;;9.15;5.70;;;384.00;2329.60;;;;;;5029975;28;20084;-55
2022/05/06 04:47:19;;;;;;;7.15;4.40;;;384.20;2329.60;;;;;;5030285;28;20021;-55
2022/05/06 04:49:45;;;;;;;8.65;5.10;;;384.40;2329.60;;;;;;5030017;28;20025;-55
2022/05/06 04:52:10;;;;;;;9.98;5.80;;;384.20;2329.60;;;;;;5030004;28;20022;-56
2022/05/06 04:54:36;;;;;;;9.23;5.70;;;384.10;2329.60;;;;;;5029745;28;20033;-54
2022/05/06 04:57:02;;;;;;;11.52;6.28;;;384.10;2329.60;;;;;;5030046;28;20029;-56
2022/05/06 04:59:28;;;;;;;12.65;6.68;;;384.20;2329.60;;;;;;5029836;28;20484;-56
2022/05/06 05:01:54;;;;;;;9.95;7.00;;;384.40;2329.60;;;;;;5029911;28;20033;-54
2022/05/06 05:04:19;;;;;;;10.38;7.38;;;384.60;2329.60;;;;;;5029721;28;20095;-54
2022/05/06 05:06:45;;;;;;;9.20;5.85;;;384.50;2329.60;;;;;;5029723;28;20025;-56
2022/05/06 05:09:11;;;;;;;11.07;6.55;;;384.60;2329.60;;;;;;5029807;28;20030;-52
2022/05/06 05:11:37;;;;;;;9.95;6.00;;;384.70;2329.60;;;;;;5029832;28;20026;-53
2022/05/06 05:14:06;;;;;;;10.40;5.80;;;384.80;2329.60;;;;;;5030011;28;20030;-54
2022/05/06 05:16:32;;;;;;;11.43;7.07;;;384.80;2329.60;;;;;;5029886;28;20390;-55
2022/05/06 05:18:58;;;;;;;10.77;6.00;;;409.60;2355.20;;;;;;5029642;28;20112;-56
2022/05/06 05:21:23;;;;;;;10.20;6.57;;;384.90;2329.60;;;;;;5029618;28;20430;-54
2022/05/06 05:23:49;;;;;;;10.23;6.13;;;384.80;2329.60;;;;;;5029754;28;20025;-55
2022/05/06 05:26:15;;;;;;;8.30;5.78;;;409.70;2355.20;;;;;;5029418;28;20026;-56
2022/05/06 05:28:41;;;;;;;10.52;6.70;;;409.70;2355.20;;;;;;5029816;28;20041;-56
2022/05/06 05:31:06;;;;;;;7.93;4.80;;;410.00;2355.20;;;;;;5029453;28;20026;-56
2022/05/06 05:33:32;;;;;;;8.75;5.25;;;410.10;2355.20;;;;;;5029634;28;20030;-54
2022/05/06 05:35:58;;;;;;;8.15;5.43;;;410.20;2355.20;;;;;;5029992;28;20108;-56
2022/05/06 05:38:23;;;;;;;7.57;5.47;;;410.20;2355.20;;;;;;5033075;28;20373;-57
2022/05/06 05:40:49;;;;;;;7.60;5.32;;;410.40;2355.20;;;;;;5033575;28;20087;-55
2022/05/06 05:48:43;;;;;;;8.80;5.93;;;435.30;2355.20;;;;;;5033042;28;20040;-55
2022/05/06 05:51:09;;;;;;;10.82;7.32;;;435.20;2355.20;;;;;;5033277;28;20030;-55
2022/05/06 05:53:35;;;;;;;17.23;9.13;;;435.20;2355.20;;;;;;5032983;28;20033;-55
2022/05/06 05:56:01;;;;;;;15.48;8.77;;;410.30;2355.20;;;;;;5033042;28;20033;-56
2022/05/06 05:58:27;;;;;;;13.95;8.32;;;435.30;2355.20;;;;;;5032766;28;20430;-53
2022/05/06 06:00:53;;;;;;;15.45;8.10;;;435.40;2355.20;;;;;;5032968;28;20128;-56
2022/05/06 06:03:19;;;;;;;12.32;7.07;;;435.50;2355.20;;;;;;5033157;28;20487;-56
2022/05/06 06:05:44;;;;;;;12.95;8.45;;;435.20;2355.20;;;;;;5032668;28;20104;-56
2022/05/06 06:08:11;;;;;;;12.57;7.28;;;435.30;2355.20;;;;;;5032761;28;20112;-54
2022/05/06 06:10:36;;;;;;;10.45;6.93;;;435.60;2355.20;;;;;;5032470;28;20029;-56
2022/05/06 06:13:04;;;;;;;9.65;6.50;;;435.90;2355.20;;;;;;5032706;28;20029;-56
2022/05/06 06:15:31;;;;;;;8.60;6.18;;;436.10;2355.20;;;;;;5032847;28;20030;-56
2022/05/06 06:17:57;;;;;;;13.50;6.78;;;460.90;2380.80;;;;;;5032444;28;20034;-56
2022/05/06 06:20:23;;;;;;;9.95;6.07;;;461.00;2380.80;;;;;;5032737;28;20479;-56
2022/05/06 06:22:50;;;;;;;8.35;5.78;;;461.00;2380.80;;;;;;5032665;28;20029;-56
2022/05/06 06:25:16;;;;;;;9.77;7.53;;;461.10;2380.80;;;;;;5032533;28;20021;-55
2022/05/06 06:27:43;;;;;;;10.82;7.22;;;461.30;2380.80;;;;;;5032378;28;20096;-55
2022/05/06 06:30:10;;;;;;;8.35;6.72;;;461.40;2380.80;;;;;;5032311;28;20498;-56
2022/05/06 06:32:36;;;;;;;9.20;6.78;;;461.40;2380.80;;;;;;5032049;28;20400;-56
2022/05/06 06:35:02;;;;;;;13.95;8.10;;;461.30;2380.80;;;;;;5032214;28;20025;-56
2022/05/06 06:37:28;;;;;;;11.57;7.65;;;461.40;2380.80;;;;;;5031919;28;20057;-56
2022/05/06 06:39:54;;;;;;;9.70;6.13;;;461.50;2380.80;;;;;;5032263;28;20558;-57
2022/05/06 06:42:19;;;;;;;9.60;7.25;;;486.40;2380.80;;;;;;5032129;28;20053;-56
2022/05/06 06:44:45;;;;;;;11.63;7.80;;;486.40;2380.80;;;;;;5032033;28;20091;-56
2022/05/06 06:47:13;;;;;;;7.20;6.43;;;486.70;2380.80;;;;;;5031601;28;20383;-56
2022/05/06 06:49:39;;;;;;;10.45;7.50;;;486.40;2380.80;;;;;;5032035;28;20040;-56
2022/05/06 06:52:05;;;;;;;8.18;6.85;;;486.50;2380.80;;;;;;5031723;28;20399;-56
2022/05/06 06:54:30;;;;;;;8.25;6.57;;;461.70;2380.80;;;;;;5031840;28;20167;-56
2022/05/06 06:56:56;;;;;;;11.27;6.68;;;486.70;2380.80;;;;;;5031599;28;20022;-56
2022/05/06 06:59:22;;;;;;;9.18;5.35;;;486.70;2380.80;;;;;;5031745;28;20037;-56
2022/05/06 07:01:47;;;;;;;8.63;5.93;;;486.80;2380.80;;;;;;5031546;28;20022;-56
2022/05/06 07:04:13;;;;;;;8.70;6.43;;;486.50;2380.80;;;;;;5031412;28;20431;-56
2022/05/06 07:12:09;;;;;;;10.90;5.97;;;461.70;2380.80;;;;;;5031624;28;20028;-56
2022/05/06 07:14:36;;;;;;;8.38;5.13;;;461.70;2380.80;;;;;;5031459;28;20030;-55
2022/05/06 07:17:02;;;;;;;13.48;6.82;;;486.80;2380.80;;;;;;5031553;28;20018;-56
2022/05/06 07:19:28;;;;;;;5.38;4.22;;;487.10;2355.20;;;;;;5031376;28;20041;-61
2022/05/06 07:21:54;;;;;;;8.52;5.50;;;486.80;2304.00;;;;;;5031097;28;20029;-59
2022/05/06 07:24:21;;;;;;;8.45;5.82;;;487.00;2252.80;;;;;;5031555;28;20022;-61
2022/05/06 07:26:50;;;;;;;8.93;5.55;;;487.10;2278.40;;;;;;5031568;28;20419;-61
2022/05/06 07:29:16;;;;;;;8.65;5.25;;;487.20;2304.00;;;;;;5031297;28;20419;-59
2022/05/06 07:31:43;;;;;;;9.07;5.95;;;487.30;2176.00;;;;;;5031319;28;20021;-62
2022/05/06 07:34:12;;;;;;;10.20;6.47;;;512.20;2176.00;;;;;;5031268;28;20041;-55
2022/05/06 07:36:42;;;;;;;12.18;7.60;;;512.20;2227.20;;;;;;5029995;28;20387;-57
2022/05/06 07:39:12;;;;;;;14.50;7.95;;;512.60;2201.60;;;;;;5030967;28;20041;-56
2022/05/06 07:41:39;;;;;;;10.30;6.85;;;512.60;2150.40;;;;;;5030942;28;20029;-56
2022/05/06 07:44:05;;;;;;;12.32;7.47;;;512.90;2176.00;;;;;;5030802;28;20018;-56
2022/05/06 07:46:32;;;;;;;10.45;7.18;;;512.80;2201.60;;;;;;5030999;28;20106;-56
2022/05/06 07:48:58;;;;;;;11.13;7.25;;;537.60;2227.20;;;;;;5030804;28;20036;-56
2022/05/06 07:51:23;;;;;;;9.90;6.88;;;537.70;2227.20;;;;;;5030659;28;20025;-57
2022/05/06 07:53:51;;;;;;;8.40;5.95;;;512.60;2176.00;;;;;;5031082;28;20033;-56
2022/05/06 07:56:18;;;;;;;10.50;7.25;;;512.80;2176.00;;;;;;5030738;28;20032;-56
2022/05/06 07:58:44;;;;;;;10.90;7.20;;;537.70;2176.00;;;;;;5029621;28;20073;-56
2022/05/06 08:01:13;;;;;;;11.23;7.15;;;538.30;2124.80;;;;;;5030657;28;20053;-56
2022/05/06 08:06:23;;;;;;;8.85;7.20;;;538.30;2150.40;;;;;;5030690;28;20045;-57
2022/05/06 08:08:49;;;;;;;13.35;7.47;;;563.30;2176.00;;;;;;5030726;28;20029;-56
2022/05/06 08:11:15;;;;;;;10.82;7.25;;;563.90;2073.60;;;;;;5030636;28;20030;-56
2022/05/06 08:13:41;;;;;;;9.30;6.60;;;563.80;2022.40;;;;;;5030508;28;20029;-56
2022/05/06 08:16:06;;;;;;;11.85;8.45;;;563.90;2022.40;;;;;;5030303;28;20210;-56
2022/05/06 08:18:32;;;;;;;8.90;7.90;;;588.80;1971.20;;;;;;5030539;28;20513;-56
2022/05/06 08:20:58;;;;;;;7.43;5.90;;;588.80;1945.60;;;;;;5030389;28;20022;-56
2022/05/06 08:23:24;;;;;;;10.15;5.95;;;563.60;1971.20;;;;;;5030327;28;20123;-56
2022/05/06 08:25:51;;;;;;;7.93;5.70;;;563.80;1945.60;;;;;;5030354;28;20138;-56
2022/05/06 08:28:19;;;;;;;9.52;6.85;;;563.70;1920.00;;;;;;5030095;28;20105;-56
2022/05/06 08:30:48;;;;;;;6.15;5.47;;;563.40;1996.80;;;;;;5030162;28;20076;-57
2022/05/06 08:33:14;;;;;;;9.55;6.10;;;563.60;1996.80;;;;;;5030034;28;20056;-56
2022/05/06 08:35:41;;;;;;;8.05;5.88;;;563.60;1996.80;;;;;;5029989;28;20021;-55
2022/05/06 08:38:08;;;;;;;8.10;5.93;;;563.70;1945.60;;;;;;5029717;28;20072;-56
2022/05/06 08:40:35;;;;;;;9.55;6.03;;;563.90;1945.60;;;;;;5029959;28;20021;-56
2022/05/06 08:43:04;;;;;;;7.82;5.18;;;588.80;1920.00;;;;;;5030231;28;20021;-56
2022/05/06 08:51:03;;;;;;;7.05;5.10;;;614.40;1843.20;;;;;;5030326;28;20033;-56
2022/05/06 08:53:35;;;;;;;6.43;5.22;;;614.70;1792.00;;;;;;5030090;28;20134;-56
2022/05/06 08:56:04;;;;;;;7.70;5.33;;;614.90;1766.40;;;;;;5030229;28;20033;-56
2022/05/06 08:58:34;;;;;;;10.13;5.13;;;614.70;1766.40;;;;;;5029837;28;20079;-56
2022/05/06 09:01:03;;;;;;;7.15;4.43;;;589.70;1766.40;;;;;;5028939;28;20073;-57
2022/05/06 09:03:29;;;;;;;6.32;4.43;;;615.00;1740.80;;;;;;5028287;28;20052;-57
2022/05/06 09:05:59;;;;;;;5.05;3.80;;;615.30;1740.80;;;;;;5028146;28;20033;-56
2022/05/06 09:08:41;;;;;;;6.15;4.15;;;615.10;1689.60;;;;;;5028150;28;20142;-56
2022/05/06 09:11:10;;;;;;;6.47;4.97;;;615.20;1689.60;;;;;;5030753;28;20022;-56
2022/05/06 09:13:38;;;;;;;5.05;4.00;;;615.30;1664.00;;;;;;5032271;28;20099;-56
2022/05/06 09:16:40;;;;;;;7.22;4.55;;;640.20;1689.60;;;;;;5031660;28;20788;-57
2022/05/06 09:19:19;;;;;;;5.93;4.13;;;615.10;1689.60;;;;;;5032060;28;20474;-56
2022/05/06 09:22:00;;;;;;;5.15;3.97;;;615.20;1664.00;;;;;;5032164;28;20456;-56
2022/05/06 09:24:29;;;;;;;5.20;3.78;;;615.10;1664.00;;;;;;5031927;28;20026;-55
2022/05/06 09:27:04;;;;;;;4.68;3.60;;;640.20;1664.00;;;;;;5032207;28;20022;-56
2022/05/06 09:29:41;;;;;;;5.25;3.63;;;640.30;1689.60;;;;;;5031782;28;20053;-56
2022/05/06 09:32:21;;;;;;;4.85;3.75;;;640.70;1664.00;;;;;;5031849;28;20029;-56
2022/05/06 09:34:58;;;;;;;6.05;3.65;;;640.70;1664.00;;;;;;5031647;28;20021;-59
2022/05/06 09:37:48;;;;;;;4.68;3.20;;;640.90;1638.40;;;;;;5031387;28;20096;-58
2022/05/06 09:40:15;;;;;;;6.78;4.57;;;615.00;1664.00;;;;;;5031691;28;20040;-56
2022/05/06 09:42:45;;;;;;;4.63;3.35;;;640.40;1638.40;;;;;;5033893;28;20083;-55
2022/05/06 09:45:42;;;;;;;5.18;3.42;;;640.20;1638.40;;;;;;5033555;28;20025;-56
2022/05/06 09:48:09;;;;;;;5.55;3.60;;;640.70;1587.20;;;;;;5032969;28;20040;-56
2022/05/06 09:50:40;;;;;;;7.03;3.92;;;640.80;1561.60;;;;;;5032876;28;20427;-56
2022/05/06 09:53:13;;;;;;;4.93;3.38;;;640.10;1561.60;;;;;;5032981;28;20038;-56
2022/05/06 09:55:47;;;;;;;3.28;2.53;;;640.80;1484.80;;;;;;5033282;28;20610;-56
2022/05/06 09:58:13;;;;;;;;;;;666.00;1459.20;;;;;;5033360;28;20156;-57
2022/05/06 10:00:40;;;;;;;3.63;3.33;;;665.60;1510.40;;;;;;5032974;28;19909;-56
2022/05/06 10:03:08;;;;;;;4.15;3.10;;;640.90;1484.80;;;;;;5032628;28;20108;-56
2022/05/06 10:05:36;;;;;;;6.88;3.53;;;665.90;1536.00;;;;;;5032909;28;20032;-57
2022/05/06 10:08:10;;;;;;;4.45;3.22;;;666.10;1484.80;;;;;;5033017;28;20030;-56
2022/05/06 10:10:40;;;;;;;6.78;3.05;;;691.30;1510.40;;;;;;5032632;28;20029;-56
2022/05/06 10:13:19;;;;;;;4.80;3.25;;;691.40;1459.20;;;;;;5032539;28;20061;-56
2022/05/06 10:15:51;;;;;;;4.63;2.70;;;691.40;1408.00;;;;;;5032489;28;20037;-56
2022/05/06 10:18:43;;;;;;;4.40;3.20;;;691.40;1433.60;;;;;;5032629;28;20391;-56
2022/05/06 10:21:10;;;;;;;3.78;2.63;;;691.30;1433.60;;;;;;5032142;28;20140;-56
2022/05/06 10:23:51;;;;;;;3.25;2.95;;;691.70;1408.00;;;;;;5031769;28;20048;-56
2022/05/06 10:26:42;;;;;;;3.47;2.80;;;666.30;1433.60;;;;;;5032288;28;20388;-56
2022/05/06 10:32:27;;;;;;;4.45;3.40;;;666.40;1408.00;;;;;;5032135;28;20052;-56
2022/05/06 10:35:02;;;;;;;4.65;3.40;;;640.90;1433.60;;;;;;5032036;28;20471;-56
2022/05/06 10:37:44;;;;;;;4.70;3.03;;;665.70;1433.60;;;;;;5031821;28;20063;-56
2022/05/06 10:40:25;;;;;;;3.92;2.60;;;691.20;1484.80;;;;;;5032350;28;20116;-56
2022/05/06 10:42:52;;;;;;;3.80;3.03;;;666.20;1459.20;;;;;;5032189;28;20432;-56
2022/05/06 10:45:23;;;;;;;4.55;2.70;;;666.00;1433.60;;;;;;5032137;28;20025;-56
2022/05/06 10:47:50;;;;;;;3.20;2.63;;;640.90;1433.60;;;;;;5032211;28;20018;-56
2022/05/06 10:50:23;;;;;;;6.25;3.33;;;666.10;1459.20;;;;;;5031919;28;20029;-56
2022/05/06 10:52:50;;;;;;;3.60;2.95;;;665.70;1459.20;;;;;;5032043;28;20030;-56
2022/05/06 10:55:17;;;;;;;3.70;3.03;;;666.00;1408.00;;;;;;5031945;28;20075;-56
2022/05/06 10:57:51;;;;;;;3.35;2.78;;;666.20;1433.60;;;;;;5031767;28;20495;-56
2022/05/06 11:00:18;;;;;;;3.67;2.78;;;666.30;1408.00;;;;;;5031751;28;20467;-56
2022/05/06 11:02:44;;;;;;;5.95;3.20;;;666.40;1408.00;;;;;;5031664;28;20026;-56
2022/05/06 11:05:15;;;;;;;3.88;2.92;;;665.70;1433.60;;;;;;5031789;28;20029;-56
2022/05/06 11:07:42;;;;;;;5.90;3.10;;;666.40;1433.60;;;;;;5031743;28;20365;-56
2022/05/06 11:10:22;;;;;;;3.47;2.70;;;665.80;1408.00;;;;;;5031602;28;20044;-56
2022/05/06 11:12:53;;;;;;;3.65;2.60;;;666.20;1408.00;;;;;;5031436;28;20072;-56
2022/05/06 11:15:32;;;;;;;3.92;2.88;;;691.30;1408.00;;;;;;5031726;28;20021;-56
2022/05/06 11:18:04;;;;;;;4.70;2.85;;;666.50;1408.00;;;;;;5031405;28;20026;-56
2022/05/06 11:20:38;;;;;;;3.30;2.55;;;666.20;1433.60;;;;;;5031567;28;20379;-57
2022/05/06 11:23:08;;;;;;;4.18;2.95;;;691.20;1408.00;;;;;;5031231;28;20046;-57
2022/05/06 11:25:36;;;;;;;3.05;2.58;;;666.30;1408.00;;;;;;5031240;28;20487;-57
2022/05/06 11:28:27;;;;;;;3.88;2.58;;;666.20;1433.60;;;;;;5031255;28;20489;-56
2022/05/06 11:30:54;;;;;;;4.38;3.17;;;666.30;1433.60;;;;;;5031084;28;20099;-56
2022/05/06 11:33:31;;;;;;;3.22;2.60;;;666.30;1408.00;;;;;;5031109;28;20525;-56
2022/05/06 11:36:02;;;;;;;2.85;2.40;;;666.50;1408.00;;;;;;5031015;28;20041;-56
2022/05/06 11:38:38;;;;;;;4.97;3.08;;;691.30;1433.60;;;;;;5030790;28;20042;-57
2022/05/06 11:41:16;;;;;;;3.60;2.90;;;691.20;1382.40;;;;;;5030833;28;20437;-56
2022/05/06 11:43:43;;;;;;;3.72;2.88;;;665.90;1408.00;;;;;;5030921;28;20036;-56
2022/05/06 11:49:03;;;;;;;;;;;666.30;1459.20;;;;;;5031353;28;20040;-56
2022/05/06 11:51:36;;;;;;;7.03;3.08;;;666.50;1433.60;;;;;;5030922;28;19905;-58
2022/05/06 11:54:03;;;;;;;3.83;2.95;;;691.30;1459.20;;;;;;5030841;28;20032;-58
2022/05/06 11:56:29;;;;;;;3.95;3.00;;;666.40;1433.60;;;;;;5030820;28;20026;-57
2022/05/06 11:58:59;;;;;;;3.88;2.58;;;666.20;1433.60;;;;;;5030431;28;20037;-56
2022/05/06 12:01:30;;;;;;;5.55;2.97;;;666.20;1459.20;;;;;;5030443;28;20022;-57
2022/05/06 12:04:03;;;;;;;3.35;2.55;;;691.20;1459.20;;;;;;5030429;28;20049;-56
2022/05/06 12:06:31;;;;;;;4.60;2.90;;;691.30;1433.60;;;;;;5030684;28;20026;-56
2022/05/06 12:09:14;;;;;;;3.42;3.00;;;691.20;1433.60;;;;;;5030363;28;20044;-56
2022/05/06 12:11:41;;;;;;;3.83;2.83;;;665.90;1484.80;;;;;;5030549;28;20107;-57
2022/05/06 12:14:09;;;;;;;4.28;3.15;;;691.20;1433.60;;;;;;5030250;28;20479;-56
2022/05/06 12:16:35;;;;;;;3.78;2.67;;;666.10;1459.20;;;;;;5030248;28;20376;-57
2022/05/06 12:19:01;;;;;;;3.33;2.95;;;691.20;1459.20;;;;;;5030441;28;20140;-59
2022/05/06 12:21:28;;;;;;;3.88;3.20;;;691.30;1459.20;;;;;;5030237;28;20500;-56
2022/05/06 12:23:55;;;;;;;3.97;3.20;;;666.10;1459.20;;;;;;5030059;28;20388;-56
2022/05/06 12:26:36;;;;;;;3.05;2.58;;;666.10;1484.80;;;;;;5030282;28;20025;-57
2022/05/06 12:29:16;;;;;;;4.05;2.92;;;666.00;1484.80;;;;;;5030334;28;20055;-56
2022/05/06 12:31:42;;;;;;;3.40;2.88;;;665.80;1510.40;;;;;;5029242;28;20013;-57
2022/05/06 12:34:07;;;;;;;4.45;2.78;;;666.20;1510.40;;;;;;5029941;28;20051;-56
2022/05/06 12:36:34;;;;;;;3.97;2.72;;;691.20;1484.80;;;;;;5029722;28;20049;-56
2022/05/06 12:39:00;;;;;;;4.07;2.67;;;640.70;1510.40;;;;;;5030319;28;20100;-56
2022/05/06 12:41:35;;;;;;;3.78;2.67;;;666.30;1484.80;;;;;;5029820;28;20030;-56
2022/05/06 12:44:18;;;;;;;4.10;3.60;;;666.30;1484.80;;;;;;5030077;28;20071;-56
2022/05/06 12:46:44;;;;;;;3.97;2.85;;;691.60;1459.20;;;;;;5029429;28;20032;-57
2022/05/06 12:51:53;;;;;;;5.53;2.70;;;691.60;1433.60;;;;;;5030105;28;20129;-57
2022/05/06 12:54:19;;;;;;;4.00;3.22;;;691.40;1433.60;;;;;;5030220;28;20045;-56
2022/05/06 12:56:45;;;;;;;4.55;2.72;;;691.70;1459.20;;;;;;5029939;28;20040;-58
2022/05/06 12:59:11;;;;;;;3.80;2.75;;;692.10;1433.60;;;;;;5030030;28;20044;-56
2022/05/06 13:01:38;;;;;;;3.17;2.58;;;692.10;1408.00;;;;;;5029677;28;20391;-56
2022/05/06 13:04:04;;;;;;;3.72;3.28;;;691.70;1433.60;;;;;;5029716;28;20025;-58